Weather reports worldwide

Advertisment
Bousson, Italy (16058): temperature & dewpoint: 19.09.2020 02:00:00 - 25.09.2020 02:00:00 (CEST)Bousson, Italy (16058): wind speed: 19.09.2020 02:00:00 - 25.09.2020 02:00:00 (CEST)Bousson, Italy (16058): wind direction: 19.09.2020 02:00:00 - 25.09.2020 02:00:00 (CEST)Bousson, Italy (16058): precipitation: 19.09.2020 02:00:00 - 25.09.2020 02:00:00 (CEST)
Date & Time tt [°C] td [°C] ff [km/h] ff [kn] dd rr [mm]
25.09.2020 02:00:00 - - - - - -
25.09.2020 01:00:00 7,8 7,8 2 1 ESE -
25.09.2020 00:00:00 7,3 7,2 0 0 N -
24.09.2020 23:00:00 8,3 8,0 2 1 E -
24.09.2020 22:00:00 9,3 9,0 2 1 SE -
24.09.2020 21:00:00 9,9 9,1 5 3 NE -
24.09.2020 20:00:00 11,0 10,4 4 2 NNW -
24.09.2020 19:00:00 12,2 11,7 2 1 W -
24.09.2020 18:00:00 12,5 12,2 2 1 SW -
24.09.2020 17:00:00 13,3 12,3 9 5 SW -
24.09.2020 16:00:00 14,0 13,0 9 5 WSW -
24.09.2020 15:00:00 14,5 12,8 9 5 W -
24.09.2020 14:00:00 14,2 12,7 5 3 SW 0,0
24.09.2020 13:00:00 15,9 11,6 4 2 SSE -
24.09.2020 12:00:00 15,4 12,1 4 2 SSE -
24.09.2020 11:00:00 13,0 12,4 2 1 SW -
24.09.2020 10:00:00 10,5 10,5 2 1 E -
24.09.2020 09:00:00 8,9 8,9 2 1 SE -
24.09.2020 08:00:00 8,2 8,2 2 1 ENE 0,0
24.09.2020 07:00:00 8,1 8,1 0 0 N -
24.09.2020 06:00:00 7,7 7,7 2 1 ENE -
24.09.2020 05:00:00 7,7 7,7 0 0 N -
24.09.2020 04:00:00 7,4 7,3 2 1 E -
24.09.2020 03:00:00 7,6 7,3 2 1 ESE -
24.09.2020 02:00:00 8,1 8,0 0 0 N 0,0
24.09.2020 01:00:00 8,3 8,0 2 1 E -
24.09.2020 00:00:00 8,1 7,5 0 0 N -
23.09.2020 23:00:00 9,2 8,3 0 0 N -
23.09.2020 22:00:00 10,9 9,6 0 0 N -
23.09.2020 21:00:00 12,2 10,9 4 2 SW -
23.09.2020 20:00:00 13,2 12,4 0 0 N 0,0
23.09.2020 19:00:00 13,9 12,6 4 2 WSW -
23.09.2020 18:00:00 15,1 12,9 8 4 SW -
23.09.2020 17:00:00 15,5 12,9 9 5 SW -
23.09.2020 16:00:00 17,1 13,2 9 5 SW -
23.09.2020 15:00:00 16,1 12,0 4 2 S -
23.09.2020 14:00:00 17,2 11,0 5 3 W 0,0
23.09.2020 13:00:00 16,8 12,5 4 2 SW -
23.09.2020 12:00:00 15,7 13,6 2 1 SSW -
23.09.2020 11:00:00 12,8 12,5 2 1 ESE -
23.09.2020 10:00:00 9,7 9,7 2 1 S -
23.09.2020 09:00:00 9,1 9,1 0 0 N -
23.09.2020 08:00:00 9,0 9,0 0 0 N -
23.09.2020 07:00:00 9,3 9,3 2 1 E -
23.09.2020 06:00:00 9,3 9,3 0 0 N -
23.09.2020 05:00:00 9,2 9,2 0 0 N -
23.09.2020 04:00:00 9,3 9,1 2 1 SSE -
23.09.2020 03:00:00 9,7 9,5 0 0 N -
23.09.2020 02:00:00 10,1 9,9 0 0 N -
23.09.2020 01:00:00 10,4 10,1 0 0 N -
23.09.2020 00:00:00 10,5 10,2 0 0 N -
22.09.2020 23:00:00 10,8 10,5 0 0 N -
22.09.2020 22:00:00 11,1 10,6 0 0 N -
22.09.2020 21:00:00 11,4 11,1 2 1 NE -
22.09.2020 20:00:00 11,7 11,7 0 0 N -
22.09.2020 19:00:00 11,7 11,4 4 2 WSW -
22.09.2020 18:00:00 11,8 11,8 5 3 SW -
22.09.2020 17:00:00 11,8 11,8 4 2 WSW -
22.09.2020 16:00:00 12,2 11,6 8 4 SW -
22.09.2020 15:00:00 14,3 13,0 9 5 WSW -
22.09.2020 14:00:00 14,1 12,6 8 4 WSW -
22.09.2020 13:00:00 14,6 12,6 9 5 WSW -
22.09.2020 12:00:00 13,6 12,6 5 3 WSW -
22.09.2020 11:00:00 13,3 12,5 4 2 WSW -
22.09.2020 10:00:00 11,6 11,6 0 0 N -
22.09.2020 09:00:00 11,0 11,0 0 0 N -
22.09.2020 08:00:00 10,6 10,3 0 0 N 0,0
22.09.2020 07:00:00 10,8 10,5 0 0 N -
22.09.2020 06:00:00 11,2 11,2 0 0 N -
22.09.2020 05:00:00 11,4 11,4 0 0 N -
22.09.2020 04:00:00 11,6 11,6 0 0 N -
22.09.2020 03:00:00 11,5 11,2 0 0 N -
22.09.2020 02:00:00 11,5 11,2 0 0 N 0,0
22.09.2020 01:00:00 11,7 11,2 0 0 N -
22.09.2020 00:00:00 12,0 11,5 0 0 N -
21.09.2020 23:00:00 12,2 11,7 0 0 N -
21.09.2020 22:00:00 12,3 11,7 0 0 N -
21.09.2020 21:00:00 12,4 11,6 0 0 N -
21.09.2020 20:00:00 12,7 12,1 0 0 N -
21.09.2020 19:00:00 13,4 12,6 0 0 N -
21.09.2020 18:00:00 14,3 13,3 4 2 WSW -
21.09.2020 17:00:00 14,8 12,8 4 2 SW -
21.09.2020 16:00:00 14,3 13,3 5 3 WSW -
21.09.2020 15:00:00 14,7 13,2 8 4 WSW -
21.09.2020 14:00:00 14,7 13,0 8 4 WSW 0,0
21.09.2020 13:00:00 14,8 13,3 5 3 WSW -
21.09.2020 12:00:00 13,4 12,6 4 2 SW -
21.09.2020 11:00:00 13,0 12,9 4 2 W -
21.09.2020 10:00:00 11,2 11,2 2 1 ENE -
21.09.2020 09:00:00 10,2 10,2 0 0 N -
21.09.2020 08:00:00 9,8 9,8 0 0 N 0,0
21.09.2020 07:00:00 9,8 9,8 2 1 ESE -
21.09.2020 06:00:00 9,5 9,3 0 0 N -
21.09.2020 05:00:00 9,8 9,6 0 0 N -
21.09.2020 04:00:00 10,1 9,8 0 0 N -
21.09.2020 03:00:00 10,4 10,1 0 0 N -
21.09.2020 02:00:00 10,5 10,2 0 0 N 0,0
21.09.2020 01:00:00 10,8 10,3 0 0 N -
21.09.2020 00:00:00 11,2 10,7 2 1 ENE -
20.09.2020 23:00:00 11,4 10,9 0 0 N -
20.09.2020 22:00:00 11,9 11,3 2 1 E -
20.09.2020 21:00:00 12,3 11,8 2 1 E -
20.09.2020 20:00:00 12,7 12,1 0 0 N -
20.09.2020 19:00:00 13,0 12,2 0 0 N -
20.09.2020 18:00:00 13,5 12,5 4 2 WSW -
20.09.2020 17:00:00 14,7 13,0 8 4 SW -
20.09.2020 16:00:00 15,7 13,3 9 5 WSW -
20.09.2020 15:00:00 15,1 13,9 8 4 WSW -
20.09.2020 14:00:00 13,9 13,1 9 5 WSW 0,0
20.09.2020 13:00:00 13,2 12,4 4 2 WSW -
20.09.2020 12:00:00 12,8 12,3 8 4 WSW -
20.09.2020 11:00:00 12,7 12,7 8 4 WSW -
20.09.2020 10:00:00 12,9 12,8 4 2 WSW -
20.09.2020 09:00:00 12,0 12,0 0 0 N -
20.09.2020 08:00:00 11,8 11,8 0 0 N -
20.09.2020 07:00:00 11,5 11,5 0 0 N -
20.09.2020 06:00:00 11,3 11,3 0 0 N -
20.09.2020 05:00:00 11,6 11,6 0 0 N -
20.09.2020 04:00:00 11,4 11,4 2 1 E -
20.09.2020 03:00:00 11,4 11,4 2 1 ENE -
20.09.2020 02:00:00 11,3 10,8 0 0 N -
20.09.2020 01:00:00 12,1 11,8 0 0 N -
20.09.2020 00:00:00 12,4 12,4 0 0 N -
19.09.2020 23:00:00 12,5 12,5 0 0 N -
19.09.2020 22:00:00 12,4 11,9 0 0 N -
19.09.2020 21:00:00 12,7 11,9 0 0 N -
19.09.2020 20:00:00 13,4 13,3 4 2 SW -
19.09.2020 19:00:00 14,1 14,0 5 3 WSW -
19.09.2020 18:00:00 14,7 14,0 8 4 WSW -
19.09.2020 17:00:00 15,6 14,2 8 4 WSW -
19.09.2020 16:00:00 15,8 14,4 5 3 WSW -
19.09.2020 15:00:00 15,6 14,6 8 4 WSW -
19.09.2020 14:00:00 14,9 13,9 4 2 WSW -
19.09.2020 13:00:00 15,4 14,2 5 3 SW -
19.09.2020 12:00:00 14,5 14,4 8 4 WSW -
19.09.2020 11:00:00 14,4 14,2 8 4 WSW -
19.09.2020 10:00:00 14,0 13,9 2 1 N -
19.09.2020 09:00:00 13,7 13,6 0 0 N -
19.09.2020 08:00:00 13,7 13,6 0 0 N -
19.09.2020 07:00:00 13,6 13,5 0 0 N -
19.09.2020 06:00:00 13,6 13,5 2 1 W -
19.09.2020 05:00:00 13,6 12,9 0 0 N -
19.09.2020 04:00:00 13,8 13,0 0 0 N -
19.09.2020 03:00:00 13,8 13,0 0 0 N -
19.09.2020 02:00:00 13,7 12,9 0 0 N 0,0

tt = temperature
td = dewpoint
ff = wind speed
dd = wind direction
rr = precipitation

Next stations